Time;durP1;ratioP1;P1;durP2;ratioP2;P2;SDS_P1;SDS_P2;PMS_P1;PMS_P2;Temp;Humidity;BMP_temperature;BMP_pressure;BME280_temperature;BME280_humidity;BME280_pressure;Samples;Min_cycle;Max_cycle;Signal;HPM_P1;HPM_P2
2022/11/09 00:01:20;;;;;;;;;;;;;;;;;;5107679;28;20477;-56
2022/11/09 00:03:46;;;;;;;;;;;;;;;;;;5108760;28;19963;-56
2022/11/09 00:06:12;;;;;;;;;;;;;;;;;;5105270;28;19923;-55
2022/11/09 00:08:38;;;;;;;;;;;;;;;;;;5108365;28;20381;-56
2022/11/09 00:11:04;;;;;;;;;;;;;;;;;;5107028;28;19945;-56
2022/11/09 00:13:29;;;;;;;;;;;;;;;;;;5104171;28;20654;-57
2022/11/09 00:15:58;;;;;;;;;;;;;;;;;;5107081;28;19951;-56
2022/11/09 00:18:24;;;;;;;;;;;;;;;;;;5106267;28;19916;-57
2022/11/09 00:20:49;;;;;;;;;;;;;;;;;;5105807;28;20403;-57
2022/11/09 00:23:15;;;;;;;;;;;;;;;;;;5106642;28;19916;-57
2022/11/09 00:25:40;;;;;;;;;;;;;;;;;;5106630;28;19916;-56
2022/11/09 00:28:05;;;;;;;;;;;;;;;;;;5106163;28;19924;-56
2022/11/09 00:30:30;;;;;;;;;;;;;;;;;;5108426;28;19927;-58
2022/11/09 00:32:56;;;;;;;;;;;;;;;;;;5108569;28;19916;-59
2022/11/09 00:35:21;;;;;;;;;;;;;;;;;;5106999;28;20288;-57
2022/11/09 00:37:46;;;;;;;;;;;;;;;;;;5107926;28;19916;-57
2022/11/09 00:40:12;;;;;;;;;;;;;;;;;;5109402;28;19916;-57
2022/11/09 00:42:37;;;;;;;;;;;;;;;;;;5107435;28;19938;-56
2022/11/09 00:45:03;;;;;;;;;;;;;;;;;;5105654;27;19923;-56
2022/11/09 00:47:28;;;;;;;;;;;;;;;;;;5107501;28;20688;-57
2022/11/09 00:49:54;;;;;;;;;;;;;;;;;;5109005;28;19935;-56
2022/11/09 00:52:19;;;;;;;;;;;;;;;;;;5106516;28;19916;-56
2022/11/09 00:54:44;;;;;;;;;;;;;;;;;;5106396;28;19916;-55
2022/11/09 00:57:11;;;;;;;;;;;;;;;;;;5105053;28;19955;-56
2022/11/09 00:59:36;;;;;;;;;;;;;;;;;;5105051;28;19916;-56
2022/11/09 01:02:01;;;;;;;;;;;;;;;;;;5104951;28;19973;-56
2022/11/09 01:04:27;;;;;;;;;;;;;;;;;;5106944;28;19924;-56
2022/11/09 01:06:52;;;;;;;;;;;;;;;;;;5109342;28;20014;-56
2022/11/09 01:09:17;;;;;;;;;;;;;;;;;;5108485;28;19919;-56
2022/11/09 01:11:42;;;;;;;;;;;;;;;;;;5108711;28;20363;-57
2022/11/09 01:14:08;;;;;;;;;;;;;;;;;;5112461;28;20377;-56
2022/11/09 01:16:33;;;;;;;;;;;;;;;;;;5110466;28;19927;-56
2022/11/09 01:18:59;;;;;;;;;;;;;;;;;;5111567;28;19965;-56
2022/11/09 01:21:24;;;;;;;;;;;;;;;;;;5109657;28;19924;-56
2022/11/09 01:23:50;;;;;;;;;;;;;;;;;;5109088;28;19920;-56
2022/11/09 01:26:15;;;;;;;;;;;;;;;;;;5106834;28;19916;-56
2022/11/09 01:28:41;;;;;;;;;;;;;;;;;;5112280;28;19923;-56
2022/11/09 01:31:08;;;;;;;;;;;;;;;;;;5111861;28;19916;-56
2022/11/09 01:33:34;;;;;;;;;;;;;;;;;;5110956;28;19923;-56
2022/11/09 01:36:01;;;;;;;;;;;;;;;;;;5111603;28;20010;-55
2022/11/09 01:38:26;;;;;;;;;;;;;;;;;;5111664;28;19993;-56
2022/11/09 01:40:51;;;;;;;;;;;;;;;;;;5110952;28;19944;-56
2022/11/09 01:43:18;;;;;;;;;;;;;;;;;;5109602;28;19916;-56
2022/11/09 01:45:50;;;;;;;;;;;;;;;;;;5110138;28;19924;-56
2022/11/09 01:48:17;;;;;;;;;;;;;;;;;;5111758;27;19928;-56
2022/11/09 01:50:57;;;;;;;;;;;;;;;;;;5110350;27;20381;-56
2022/11/09 01:53:26;;;;;;;;;;;;;;;;;;5109576;27;19976;-57
2022/11/09 01:55:53;;;;;;;;;;;;;;;;;;5109272;28;19938;-57
2022/11/09 01:58:24;;;;;;;;;;;;;;;;;;5107803;28;19922;-56
2022/11/09 02:00:50;;;;;;;;;;;;;;;;;;5110001;27;19961;-56
2022/11/09 02:03:21;;;;;;;;;;;;;;;;;;5110361;27;19916;-56
2022/11/09 02:05:47;;;;;;;;;;;;;;;;;;5107874;28;19926;-55
2022/11/09 02:08:14;;;;;;;;;;;;;;;;;;5109637;27;19919;-55
2022/11/09 02:10:51;;;;;;;;;;;;;;;;;;5110972;27;19920;-55
2022/11/09 02:13:18;;;;;;;;;;;;;;;;;;5107796;27;20002;-56
2022/11/09 02:15:43;;;;;;;;;;;;;;;;;;5108441;27;20085;-55
2022/11/09 02:18:09;;;;;;;;;;;;;;;;;;5110357;27;20080;-56
2022/11/09 02:20:47;;;;;;;;;;;;;;;;;;5108842;27;20440;-56
2022/11/09 02:23:12;;;;;;;;;;;;;;;;;;5109190;27;19965;-56
2022/11/09 02:25:38;;;;;;;;;;;;;;;;;;5108650;27;19916;-56
2022/11/09 02:28:03;;;;;;;;;;;;;;;;;;5110579;28;20316;-56
2022/11/09 02:30:30;;;;;;;;;;;;;;;;;;5110883;27;19923;-56
2022/11/09 02:32:55;;;;;;;;;;;;;;;;;;5110926;28;19923;-56
2022/11/09 02:35:20;;;;;;;;;;;;;;;;;;5111928;27;19923;-56
2022/11/09 02:37:49;;;;;;;;;;;;;;;;;;5110917;27;19916;-57
2022/11/09 02:40:23;;;;;;;;;;;;;;;;;;5107904;28;19924;-56
2022/11/09 02:42:48;;;;;;;;;;;;;;;;;;5109126;27;20419;-56
2022/11/09 02:45:13;;;;;;;;;;;;;;;;;;5110531;27;19920;-56
2022/11/09 02:47:39;;;;;;;;;;;;;;;;;;5110610;27;19927;-56
2022/11/09 02:50:04;;;;;;;;;;;;;;;;;;5109955;27;19938;-55
2022/11/09 02:52:29;;;;;;;;;;;;;;;;;;5108570;27;19927;-56
2022/11/09 02:54:55;;;;;;;;;;;;;;;;;;5109153;28;19922;-56
2022/11/09 02:57:20;;;;;;;;;;;;;;;;;;5111999;27;19943;-56
2022/11/09 02:59:45;;;;;;;;;;;;;;;;;;5112217;27;19915;-56
2022/11/09 03:02:10;;;;;;;;;;;;;;;;;;5109246;28;19927;-56
2022/11/09 03:04:36;;;;;;;;;;;;;;;;;;5111395;27;19919;-56
2022/11/09 03:07:01;;;;;;;;;;;;;;;;;;5107565;27;19920;-55
2022/11/09 03:09:26;;;;;;;;;;;;;;;;;;5106903;28;19916;-56
2022/11/09 03:11:51;;;;;;;;;;;;;;;;;;5107670;28;19980;-56
2022/11/09 03:14:17;;;;;;;;;;;;;;;;;;5110677;27;19916;-57
2022/11/09 03:16:42;;;;;;;;;;;;;;;;;;5113238;27;19916;-56
2022/11/09 03:19:07;;;;;;;;;;;;;;;;;;5110075;27;19923;-55
2022/11/09 03:21:33;;;;;;;;;;;;;;;;;;5105194;28;19915;-57
2022/11/09 03:23:58;;;;;;;;;;;;;;;;;;5108934;27;19982;-56
2022/11/09 03:26:24;;;;;;;;;;;;;;;;;;5110021;27;19915;-56
2022/11/09 03:28:49;;;;;;;;;;;;;;;;;;5107936;28;19916;-56
2022/11/09 03:31:14;;;;;;;;;;;;;;;;;;5109734;28;19915;-56
2022/11/09 03:33:39;;;;;;;;;;;;;;;;;;5108554;27;20006;-56
2022/11/09 03:36:05;;;;;;;;;;;;;;;;;;5107401;28;19919;-55
2022/11/09 03:38:30;;;;;;;;;;;;;;;;;;5108319;27;19938;-55
2022/11/09 03:40:57;;;;;;;;;;;;;;;;;;5108204;28;19959;-56
2022/11/09 03:43:22;;;;;;;;;;;;;;;;;;5106311;27;19915;-56
2022/11/09 03:45:48;;;;;;;;;;;;;;;;;;5110484;27;19916;-56
2022/11/09 03:48:13;;;;;;;;;;;;;;;;;;5109057;28;19919;-56
2022/11/09 03:50:39;;;;;;;;;;;;;;;;;;5109919;28;19976;-56
2022/11/09 03:53:05;;;;;;;;;;;;;;;;;;5108642;27;19915;-56
2022/11/09 03:55:30;;;;;;;;;;;;;;;;;;5112039;27;19916;-56
2022/11/09 03:57:56;;;;;;;;;;;;;;;;;;5106748;28;19931;-56
2022/11/09 04:00:22;;;;;;;;;;;;;;;;;;5108821;27;19992;-58
2022/11/09 04:02:47;;;;;;;;;;;;;;;;;;5106880;28;19973;-58
2022/11/09 04:05:12;;;;;;;;;;;;;;;;;;5108808;27;19920;-58
2022/11/09 04:07:37;;;;;;;;;;;;;;;;;;5109521;28;19920;-58
2022/11/09 04:10:03;;;;;;;;;;;;;;;;;;5106872;28;19923;-58
2022/11/09 04:12:28;;;;;;;;;;;;;;;;;;5107944;28;19923;-57
2022/11/09 04:14:56;;;;;;;;;;;;;;;;;;5108237;28;19916;-57
2022/11/09 04:17:22;;;;;;;;;;;;;;;;;;5107035;28;19915;-58
2022/11/09 04:19:47;;;;;;;;;;;;;;;;;;5105237;28;19923;-58
2022/11/09 04:22:12;;;;;;;;;;;;;;;;;;5105435;28;20011;-57
2022/11/09 04:24:37;;;;;;;;;;;;;;;;;;5108663;28;19923;-58
2022/11/09 04:27:03;;;;;;;;;;;;;;;;;;5113861;28;19920;-57
2022/11/09 04:29:28;;;;;;;;;;;;;;;;;;5109124;28;20400;-58
2022/11/09 04:31:53;;;;;;;;;;;;;;;;;;5107609;28;20343;-58
2022/11/09 04:34:18;;;;;;;;;;;;;;;;;;5106906;28;19962;-58
2022/11/09 04:36:44;;;;;;;;;;;;;;;;;;5106972;28;19924;-58
2022/11/09 04:39:09;;;;;;;;;;;;;;;;;;5109380;28;19919;-58
2022/11/09 04:41:34;;;;;;;;;;;;;;;;;;5111864;27;20377;-57
2022/11/09 04:44:00;;;;;;;;;;;;;;;;;;5114680;27;19920;-59
2022/11/09 04:46:25;;;;;;;;;;;;;;;;;;5112710;27;19976;-58
2022/11/09 04:48:50;;;;;;;;;;;;;;;;;;5112793;28;20401;-58
2022/11/09 04:51:16;;;;;;;;;;;;;;;;;;5111072;27;19916;-57
2022/11/09 04:53:41;;;;;;;;;;;;;;;;;;5110149;27;19923;-58
2022/11/09 04:56:07;;;;;;;;;;;;;;;;;;5109611;27;19916;-58
2022/11/09 04:58:32;;;;;;;;;;;;;;;;;;5110034;27;19916;-58
2022/11/09 05:01:04;;;;;;;;;;;;;;;;;;5109974;28;19919;-58
2022/11/09 05:03:29;;;;;;;;;;;;;;;;;;5110929;28;19916;-58
2022/11/09 05:05:55;;;;;;;;;;;;;;;;;;5111817;27;19924;-58
2022/11/09 05:08:20;;;;;;;;;;;;;;;;;;5112737;27;20319;-59
2022/11/09 05:10:45;;;;;;;;;;;;;;;;;;5110189;27;19916;-58
2022/11/09 05:13:11;;;;;;;;;;;;;;;;;;5110315;27;19925;-58
2022/11/09 05:15:36;;;;;;;;;;;;;;;;;;5109173;28;19960;-58
2022/11/09 05:18:02;;;;;;;;;;;;;;;;;;5112061;27;19923;-58
2022/11/09 05:20:28;;;;;;;;;;;;;;;;;;5112255;27;19927;-58
2022/11/09 05:25:37;;;;;;;;;;;;;;;;;;5109711;27;20341;-57
2022/11/09 05:28:03;;;;;;;;;;;;;;;;;;5113704;27;20010;-57
2022/11/09 05:30:28;;;;;;;;;;;;;;;;;;5111974;27;19981;-57
2022/11/09 05:32:53;;;;;;;;;;;;;;;;;;5112023;27;20019;-59
2022/11/09 05:35:19;;;;;;;;;;;;;;;;;;5111313;27;19915;-60
2022/11/09 05:37:47;;;;;;;;;;;;;;;;;;5110610;27;20330;-60
2022/11/09 05:40:13;;;;;;;;;;;;;;;;;;5111294;28;19916;-61
2022/11/09 05:42:39;;;;;;;;;;;;;;;;;;5110269;27;19993;-60
2022/11/09 05:45:05;;;;;;;;;;;;;;;;;;5110143;27;20038;-60
2022/11/09 05:47:35;;;;;;;;;;;;;;;;;;5110907;27;20597;-60
2022/11/09 05:50:00;;;;;;;;;;;;;;;;;;5112293;28;20159;-60
2022/11/09 05:52:25;;;;;;;;;;;;;;;;;;5107951;28;19923;-60
2022/11/09 05:54:50;;;;;;;;;;;;;;;;;;5111780;27;19924;-59
2022/11/09 05:57:16;;;;;;;;;;;;;;;;;;5107896;28;20045;-60
2022/11/09 05:59:41;;;;;;;;;;;;;;;;;;5108461;28;19923;-57
2022/11/09 06:02:06;;;;;;;;;;;;;;;;;;5107918;27;20420;-57
2022/11/09 06:04:31;;;;;;;;;;;;;;;;;;5109628;27;19969;-57
2022/11/09 06:06:57;;;;;;;;;;;;;;;;;;5110039;27;19926;-60
2022/11/09 06:09:22;;;;;;;;;;;;;;;;;;5110290;28;19973;-60
2022/11/09 06:11:49;;;;;;;;;;;;;;;;;;5108491;27;20339;-59
2022/11/09 06:14:14;;;;;;;;;;;;;;;;;;5106707;27;19916;-60
2022/11/09 06:16:39;;;;;;;;;;;;;;;;;;5111760;27;20002;-59
2022/11/09 06:19:04;;;;;;;;;;;;;;;;;;5115380;27;20424;-60
2022/11/09 06:21:30;;;;;;;;;;;;;;;;;;5106961;27;19916;-60
2022/11/09 06:23:55;;;;;;;;;;;;;;;;;;5110730;27;19916;-59
2022/11/09 06:26:20;;;;;;;;;;;;;;;;;;5111997;27;19980;-59
2022/11/09 06:28:45;;;;;;;;;;;;;;;;;;5109884;28;19919;-58
2022/11/09 06:31:12;;;;;;;;;;;;;;;;;;5110973;27;19928;-59
2022/11/09 06:33:37;;;;;;;;;;;;;;;;;;5109757;28;19915;-59
2022/11/09 06:36:03;;;;;;;;;;;;;;;;;;5109858;27;20424;-59
2022/11/09 06:38:28;;;;;;;;;;;;;;;;;;5112237;27;19944;-59
2022/11/09 06:40:55;;;;;;;;;;;;;;;;;;5108068;27;19939;-59
2022/11/09 06:43:20;;;;;;;;;;;;;;;;;;5107996;27;19926;-59
2022/11/09 06:45:45;;;;;;;;;;;;;;;;;;5109485;28;20006;-59
2022/11/09 06:48:10;;;;;;;;;;;;;;;;;;5108365;27;19969;-59
2022/11/09 06:50:36;;;;;;;;;;;;;;;;;;5111661;27;20389;-59
2022/11/09 06:53:03;;;;;;;;;;;;;;;;;;5108586;27;19926;-58
2022/11/09 06:55:28;;;;;;;;;;;;;;;;;;5106517;27;19923;-59
2022/11/09 06:57:54;;;;;;;;;;;;;;;;;;5107913;27;19923;-59
2022/11/09 07:00:19;;;;;;;;;;;;;;;;;;5110652;27;19916;-59
2022/11/09 07:02:45;;;;;;;;;;;;;;;;;;5110747;27;19945;-60
2022/11/09 07:05:10;;;;;;;;;;;;;;;;;;5105716;27;19977;-60
2022/11/09 07:07:35;;;;;;;;;;;;;;;;;;5109358;27;19920;-60
2022/11/09 07:10:00;;;;;;;;;;;;;;;;;;5108083;27;20396;-61
2022/11/09 07:12:26;;;;;;;;;;;;;;;;;;5111408;27;19923;-60
2022/11/09 07:14:51;;;;;;;;;;;;;;;;;;5106429;28;19920;-60
2022/11/09 07:17:16;;;;;;;;;;;;;;;;;;5107503;27;19984;-60
2022/11/09 07:19:42;;;;;;;;;;;;;;;;;;5104534;28;19915;-60
2022/11/09 07:22:07;;;;;;;;;;;;;;;;;;5109152;27;19923;-60
2022/11/09 07:24:32;;;;;;;;;;;;;;;;;;5110388;27;19923;-60
2022/11/09 07:26:57;;;;;;;;;;;;;;;;;;5115014;27;20023;-59
2022/11/09 07:29:23;;;;;;;;;;;;;;;;;;5109104;28;20335;-59
2022/11/09 07:31:48;;;;;;;;;;;;;;;;;;5107081;28;19915;-59
2022/11/09 07:34:14;;;;;;;;;;;;;;;;;;5109452;28;19912;-59
2022/11/09 07:36:39;;;;;;;;;;;;;;;;;;5105487;28;19916;-59
2022/11/09 07:39:04;;;;;;;;;;;;;;;;;;5109151;28;19923;-59
2022/11/09 07:41:30;;;;;;;;;;;;;;;;;;5103267;28;20531;-60
2022/11/09 07:43:56;;;;;;;;;;;;;;;;;;5109821;28;19923;-59
2022/11/09 07:46:21;;;;;;;;;;;;;;;;;;5106894;28;19962;-60
2022/11/09 07:48:46;;;;;;;;;;;;;;;;;;5107767;28;19994;-59
2022/11/09 07:51:12;;;;;;;;;;;;;;;;;;5107211;28;19915;-59
2022/11/09 07:53:37;;;;;;;;;;;;;;;;;;5106983;28;19923;-59
2022/11/09 07:56:02;;;;;;;;;;;;;;;;;;5107634;28;19998;-59
2022/11/09 07:58:28;;;;;;;;;;;;;;;;;;5107473;28;20048;-60
2022/11/09 08:00:53;;;;;;;;;;;;;;;;;;5108901;27;20409;-59
2022/11/09 08:03:20;;;;;;;;;;;;;;;;;;5107646;27;19916;-59
2022/11/09 08:05:45;;;;;;;;;;;;;;;;;;5107936;27;20330;-60
2022/11/09 08:08:11;;;;;;;;;;;;;;;;;;5107812;28;19928;-60
2022/11/09 08:10:37;;;;;;;;;;;;;;;;;;5109905;28;20010;-60
2022/11/09 08:13:03;;;;;;;;;;;;;;;;;;5107063;28;19911;-60
2022/11/09 08:15:29;;;;;;;;;;;;;;;;;;5110917;27;19942;-59
2022/11/09 08:17:57;;;;;;;;;;;;;;;;;;5106611;28;19916;-59
2022/11/09 08:20:23;;;;;;;;;;;;;;;;;;5109493;28;19916;-59
2022/11/09 08:22:48;;;;;;;;;;;;;;;;;;5108174;28;19918;-59
2022/11/09 08:25:13;;;;;;;;;;;;;;;;;;5109546;28;19920;-59
2022/11/09 08:27:39;;;;;;;;;;;;;;;;;;5110165;28;20401;-59
2022/11/09 08:30:06;;;;;;;;;;;;;;;;;;5108667;28;19934;-60
2022/11/09 08:32:31;;;;;;;;;;;;;;;;;;5108150;28;19916;-60
2022/11/09 08:34:56;;;;;;;;;;;;;;;;;;5111089;28;20015;-59
2022/11/09 08:37:21;;;;;;;;;;;;;;;;;;5107931;28;20389;-59
2022/11/09 08:39:47;;;;;;;;;;;;;;;;;;5109942;28;19930;-59
2022/11/09 08:42:12;;;;;;;;;;;;;;;;;;5109277;28;20282;-60
2022/11/09 08:44:37;;;;;;;;;;;;;;;;;;5108958;28;19966;-59
2022/11/09 08:47:02;;;;;;;;;;;;;;;;;;5106778;28;19916;-59
2022/11/09 08:49:28;;;;;;;;;;;;;;;;;;5105222;28;19919;-60
2022/11/09 08:51:53;;;;;;;;;;;;;;;;;;5106548;28;20402;-59
2022/11/09 08:54:18;;;;;;;;;;;;;;;;;;5106656;28;19915;-60
2022/11/09 08:56:45;;;;;;;;;;;;;;;;;;5104645;28;19915;-59
2022/11/09 08:59:11;;;;;;;;;;;;;;;;;;5104408;28;19919;-60
2022/11/09 09:01:36;;;;;;;;;;;;;;;;;;5107992;28;20719;-59
2022/11/09 09:04:01;;;;;;;;;;;;;;;;;;5107801;28;20361;-59
2022/11/09 09:06:26;;;;;;;;;;;;;;;;;;5106997;28;19922;-60
2022/11/09 09:08:52;;;;;;;;;;;;;;;;;;5106076;28;19944;-60
2022/11/09 09:11:17;;;;;;;;;;;;;;;;;;5105336;28;19997;-60
2022/11/09 09:13:42;;;;;;;;;;;;;;;;;;5108964;28;20400;-59
2022/11/09 09:16:09;;;;;;;;;;;;;;;;;;5107020;28;20439;-59
2022/11/09 09:18:34;;;;;;;;;;;;;;;;;;5107324;28;19911;-59
2022/11/09 09:20:59;;;;;;;;;;;;;;;;;;5109446;28;20385;-60
2022/11/09 09:23:25;;;;;;;;;;;;;;;;;;5107988;28;20310;-60
2022/11/09 09:25:50;;;;;;;;;;;;;;;;;;5109344;28;19915;-60
2022/11/09 09:28:15;;;;;;;;;;;;;;;;;;5112071;27;19923;-59
2022/11/09 09:30:40;;;;;;;;;;;;;;;;;;5111370;27;19926;-59
2022/11/09 09:33:05;;;;;;;;;;;;;;;;;;5110552;28;19915;-58
2022/11/09 09:35:31;;;;;;;;;;;;;;;;;;5110379;27;19996;-58
2022/11/09 09:37:57;;;;;;;;;;;;;;;;;;5110761;27;19916;-58
2022/11/09 09:40:30;;;;;;;;;;;;;;;;;;5111061;27;20349;-58
2022/11/09 09:42:56;;;;;;;;;;;;;;;;;;5112317;28;19927;-58
2022/11/09 09:45:23;;;;;;;;;;;;;;;;;;5114108;27;19924;-59
2022/11/09 09:47:51;;;;;;;;;;;;;;;;;;5112791;27;20302;-58
2022/11/09 09:50:20;;;;;;;;;;;;;;;;;;5107774;27;20388;-58
2022/11/09 09:52:51;;;;;;;;;;;;;;;;;;5108542;27;19923;-58
2022/11/09 09:55:30;;;;;;;;;;;;;;;;;;5109613;28;20415;-59
2022/11/09 09:58:21;;;;;;;;;;;;;;;;;;5110158;27;19959;-58
2022/11/09 10:00:47;;;;;;;;;;;;;;;;;;5110032;28;19916;-58
2022/11/09 10:03:14;;;;;;;;;;;;;;;;;;5110408;27;19922;-58
2022/11/09 10:05:47;;;;;;;;;;;;;;;;;;5110124;27;19939;-59
2022/11/09 10:08:15;;;;;;;;;;;;;;;;;;5113071;27;19919;-58
2022/11/09 10:11:03;;;;;;;;;;;;;;;;;;5112675;27;19923;-59
2022/11/09 10:13:52;;;;;;;;;;;;;;;;;;5109321;27;19916;-58
2022/11/09 10:16:22;;;;;;;;;;;;;;;;;;5093130;27;19920;-58
2022/11/09 10:18:55;;;;;;;;;;;;;;;;;;5112069;27;20452;-58
2022/11/09 10:21:39;;;;;;;;;;;;;;;;;;5111667;27;19923;-59
2022/11/09 10:24:14;;;;;;;;;;;;;;;;;;5110209;28;19919;-58
2022/11/09 10:26:40;;;;;;;;;;;;;;;;;;5111520;27;20010;-58
2022/11/09 10:29:25;;;;;;;;;;;;;;;;;;5110784;28;20498;-58
2022/11/09 10:31:52;;;;;;;;;;;;;;;;;;5107996;27;20014;-59
2022/11/09 10:34:19;;;;;;;;;;;;;;;;;;5109694;27;19931;-58
2022/11/09 10:36:47;;;;;;;;;;;;;;;;;;5110920;27;19950;-58
2022/11/09 10:39:13;;;;;;;;;;;;;;;;;;5111811;27;20388;-58
2022/11/09 10:41:40;;;;;;;;;;;;;;;;;;5108241;27;19920;-58
2022/11/09 10:44:11;;;;;;;;;;;;;;;;;;5109327;27;19928;-58
2022/11/09 10:46:55;;;;;;;;;;;;;;;;;;5108185;27;19940;-58
2022/11/09 10:49:21;;;;;;;;;;;;;;;;;;5108311;27;20430;-58
2022/11/09 10:51:46;;;;;;;;;;;;;;;;;;5105839;27;20014;-58
2022/11/09 10:54:26;;;;;;;;;;;;;;;;;;5110602;28;19923;-58
2022/11/09 10:56:59;;;;;;;;;;;;;;;;;;5110931;27;19920;-57
2022/11/09 10:59:39;;;;;;;;;;;;;;;;;;5109761;27;20397;-58
2022/11/09 11:02:23;;;;;;;;;;;;;;;;;;5109053;27;19923;-58
2022/11/09 11:04:48;;;;;;;;;;;;;;;;;;5109850;27;20557;-58
2022/11/09 11:07:17;;;;;;;;;;;;;;;;;;5106892;27;19924;-57
2022/11/09 11:09:42;;;;;;;;;;;;;;;;;;5109175;27;19921;-57
2022/11/09 11:12:15;;;;;;;;;;;;;;;;;;5112884;27;20024;-58
2022/11/09 11:14:45;;;;;;;;;;;;;;;;;;5111810;27;19923;-58
2022/11/09 11:17:41;;;;;;;;;;;;;;;;;;5139625;27;19954;-58
2022/11/09 11:20:36;;;;;;;;;;;;;;;;;;5105323;27;19919;-58
2022/11/09 11:23:20;;;;;;;;;;;;;;;;;;5092482;28;19916;-58
2022/11/09 11:25:52;;;;;;;;;;;;;;;;;;5109714;27;19923;-58
2022/11/09 11:28:20;;;;;;;;;;;;;;;;;;5107957;28;20377;-58
2022/11/09 11:30:45;;;;;;;;;;;;;;;;;;5110026;27;19960;-57
2022/11/09 11:33:15;;;;;;;;;;;;;;;;;;5109147;28;19915;-58
2022/11/09 11:35:59;;;;;;;;;;;;;;;;;;5105199;27;19916;-58
2022/11/09 11:38:44;;;;;;;;;;;;;;;;;;5111368;27;20035;-58
2022/11/09 11:41:27;;;;;;;;;;;;;;;;;;5105011;28;19915;-58
2022/11/09 11:44:02;;;;;;;;;;;;;;;;;;5114285;27;19941;-58
2022/11/09 11:46:47;;;;;;;;;;;;;;;;;;5105002;28;19923;-58
2022/11/09 11:49:30;;;;;;;;;;;;;;;;;;5106091;28;19926;-58
2022/11/09 11:52:16;;;;;;;;;;;;;;;;;;5106625;28;20333;-58
2022/11/09 11:54:50;;;;;;;;;;;;;;;;;;5104887;28;20373;-58
2022/11/09 11:57:18;;;;;;;;;;;;;;;;;;5101145;28;19998;-58
2022/11/09 12:00:03;;;;;;;;;;;;;;;;;;5107695;28;20410;-54
2022/11/09 12:02:28;;;;;;;;;;;;;;;;;;5106200;28;19912;-54
2022/11/09 12:04:54;;;;;;;;;;;;;;;;;;5108045;28;20388;-52
2022/11/09 12:07:19;;;;;;;;;;;;;;;;;;5104521;28;19959;-54
2022/11/09 12:09:52;;;;;;;;;;;;;;;;;;5106416;28;20487;-54
2022/11/09 12:12:29;;;;;;;;;;;;;;;;;;5106261;28;19911;-54
2022/11/09 12:14:54;;;;;;;;;;;;;;;;;;5106677;28;19941;-54
2022/11/09 12:17:36;;;;;;;;;;;;;;;;;;5110300;28;19915;-58
2022/11/09 12:20:23;;;;;;;;;;;;;;;;;;5125958;27;19927;-58
2022/11/09 12:23:07;;;;;;;;;;;;;;;;;;5108513;28;20006;-58
2022/11/09 12:25:41;;;;;;;;;;;;;;;;;;5106528;28;20421;-58
2022/11/09 12:28:13;;;;;;;;;;;;;;;;;;5112632;28;19920;-58
2022/11/09 12:30:41;;;;;;;;;;;;;;;;;;5111838;28;19927;-58
2022/11/09 12:33:09;;;;;;;;;;;;;;;;;;5118821;28;19970;-58
2022/11/09 12:35:45;;;;;;;;;;;;;;;;;;5107161;28;19931;-58
2022/11/09 12:38:13;;;;;;;;;;;;;;;;;;5107697;28;19916;-58
2022/11/09 12:40:47;;;;;;;;;;;;;;;;;;5109347;28;20003;-58
2022/11/09 12:43:18;;;;;;;;;;;;;;;;;;5107238;28;20065;-58
2022/11/09 12:45:44;;;;;;;;;;;;;;;;;;5109174;28;19916;-59
2022/11/09 12:48:20;;;;;;;;;;;;;;;;;;5109834;28;20522;-59
2022/11/09 12:50:45;;;;;;;;;;;;;;;;;;5113157;28;19949;-58
2022/11/09 12:53:11;;;;;;;;;;;;;;;;;;5106963;28;19915;-58
2022/11/09 12:55:57;;;;;;;;;;;;;;;;;;5106875;28;19916;-58
2022/11/09 12:58:26;;;;;;;;;;;;;;;;;;5106263;28;19919;-59
2022/11/09 13:00:56;;;;;;;;;;;;;;;;;;5110180;28;19941;-59
2022/11/09 13:03:44;;;;;;;;;;;;;;;;;;5110486;27;19923;-58
2022/11/09 13:06:09;;;;;;;;;;;;;;;;;;5107125;27;19915;-58
2022/11/09 13:08:35;;;;;;;;;;;;;;;;;;5115155;27;20309;-59
2022/11/09 13:11:17;;;;;;;;;;;;;;;;;;5114698;27;19931;-58
2022/11/09 13:13:43;;;;;;;;;;;;;;;;;;5113533;27;19915;-58
2022/11/09 13:16:28;;;;;;;;;;;;;;;;;;5112590;27;19922;-58
2022/11/09 13:18:53;;;;;;;;;;;;;;;;;;5112494;28;19955;-58
2022/11/09 13:21:21;;;;;;;;;;;;;;;;;;5114900;27;19974;-58
2022/11/09 13:23:47;;;;;;;;;;;;;;;;;;5112171;27;19916;-58
2022/11/09 13:26:24;;;;;;;;;;;;;;;;;;5112491;27;20024;-58
2022/11/09 13:29:09;;;;;;;;;;;;;;;;;;5111698;27;19920;-59
2022/11/09 13:31:52;;;;;;;;;;;;;;;;;;5112093;27;19931;-59
2022/11/09 13:34:36;;;;;;;;;;;;;;;;;;5112219;28;19916;-59
2022/11/09 13:37:22;;;;;;;;;;;;;;;;;;5110289;27;19923;-59
2022/11/09 13:39:47;;;;;;;;;;;;;;;;;;5103438;28;19915;-59
2022/11/09 13:42:27;;;;;;;;;;;;;;;;;;5108429;28;19918;-59
2022/11/09 13:44:53;;;;;;;;;;;;;;;;;;5109228;28;20010;-59
2022/11/09 13:47:19;;;;;;;;;;;;;;;;;;5111713;28;20019;-59
2022/11/09 13:49:46;;;;;;;;;;;;;;;;;;5110448;28;19923;-59
2022/11/09 13:52:30;;;;;;;;;;;;;;;;;;5109095;28;20075;-59
2022/11/09 13:54:56;;;;;;;;;;;;;;;;;;5109400;27;20560;-59
2022/11/09 13:57:22;;;;;;;;;;;;;;;;;;5111386;28;19916;-59
2022/11/09 13:59:48;;;;;;;;;;;;;;;;;;5111942;28;19966;-58
2022/11/09 14:02:25;;;;;;;;;;;;;;;;;;5109758;28;19976;-58
2022/11/09 14:04:50;;;;;;;;;;;;;;;;;;5109665;28;19937;-58
2022/11/09 14:07:24;;;;;;;;;;;;;;;;;;5110425;28;20498;-58
2022/11/09 14:09:56;;;;;;;;;;;;;;;;;;5107891;28;20446;-58
2022/11/09 14:12:31;;;;;;;;;;;;;;;;;;5128316;27;19923;-58
2022/11/09 14:15:02;;;;;;;;;;;;;;;;;;5111168;28;19916;-58
2022/11/09 14:17:35;;;;;;;;;;;;;;;;;;5110792;28;19960;-57
2022/11/09 14:20:07;;;;;;;;;;;;;;;;;;5111597;28;19961;-58
2022/11/09 14:22:33;;;;;;;;;;;;;;;;;;5108490;28;20314;-58
2022/11/09 14:25:02;;;;;;;;;;;;;;;;;;5103684;28;19923;-57
2022/11/09 14:27:28;;;;;;;;;;;;;;;;;;5110185;28;20389;-56
2022/11/09 14:29:54;;;;;;;;;;;;;;;;;;5111480;28;19931;-57
2022/11/09 14:32:34;;;;;;;;;;;;;;;;;;5109720;28;19991;-57
2022/11/09 14:35:20;;;;;;;;;;;;;;;;;;5102913;28;19939;-57
2022/11/09 14:37:45;;;;;;;;;;;;;;;;;;5109654;28;19916;-57
2022/11/09 14:40:27;;;;;;;;;;;;;;;;;;5108042;28;19961;-57
2022/11/09 14:43:00;;;;;;;;;;;;;;;;;;5108436;28;20357;-57
2022/11/09 14:45:26;;;;;;;;;;;;;;;;;;5105991;28;19916;-58
2022/11/09 14:47:56;;;;;;;;;;;;;;;;;;5111142;28;19947;-57
2022/11/09 14:50:21;;;;;;;;;;;;;;;;;;5107205;28;19919;-58
2022/11/09 14:52:47;;;;;;;;;;;;;;;;;;5107417;28;20282;-57
2022/11/09 14:55:14;;;;;;;;;;;;;;;;;;5108054;28;19920;-56
2022/11/09 14:57:39;;;;;;;;;;;;;;;;;;5107900;28;19916;-57
2022/11/09 15:00:19;;;;;;;;;;;;;;;;;;5107952;28;19934;-57
2022/11/09 15:02:45;;;;;;;;;;;;;;;;;;5107474;28;19951;-58
2022/11/09 15:05:28;;;;;;;;;;;;;;;;;;5107702;28;20877;-59
2022/11/09 15:07:54;;;;;;;;;;;;;;;;;;5107638;28;19931;-58
2022/11/09 15:10:19;;;;;;;;;;;;;;;;;;5108438;28;19916;-58
2022/11/09 15:12:48;;;;;;;;;;;;;;;;;;5106041;28;19987;-58
2022/11/09 15:15:23;;;;;;;;;;;;;;;;;;5110189;28;19927;-59
2022/11/09 15:17:48;;;;;;;;;;;;;;;;;;5110012;28;20408;-59
2022/11/09 15:20:13;;;;;;;;;;;;;;;;;;5108595;28;19916;-59
2022/11/09 15:22:38;;;;;;;;;;;;;;;;;;5109737;28;19916;-59
2022/11/09 15:25:37;;;;;;;;;;;;;;;;;;5108869;28;20665;-58
2022/11/09 15:28:08;;;;;;;;;;;;;;;;;;5081508;28;20022;-58
2022/11/09 15:30:47;;;;;;;;;;;;;;;;;;5107833;28;19915;-58
2022/11/09 15:33:19;;;;;;;;;;;;;;;;;;5106202;28;19927;-58
2022/11/09 15:36:07;;;;;;;;;;;;;;;;;;5107497;28;20377;-59
2022/11/09 15:38:35;;;;;;;;;;;;;;;;;;5101900;28;19923;-58
2022/11/09 15:41:02;;;;;;;;;;;;;;;;;;5106891;28;19927;-58
2022/11/09 15:43:27;;;;;;;;;;;;;;;;;;5107101;27;20002;-59
2022/11/09 15:45:53;;;;;;;;;;;;;;;;;;5108948;28;20014;-59
2022/11/09 15:48:18;;;;;;;;;;;;;;;;;;5108671;28;19958;-60
2022/11/09 15:50:44;;;;;;;;;;;;;;;;;;5107655;28;19916;-59
2022/11/09 15:53:10;;;;;;;;;;;;;;;;;;5106379;28;19922;-59
2022/11/09 15:55:36;;;;;;;;;;;;;;;;;;5109097;28;19920;-59
2022/11/09 15:58:01;;;;;;;;;;;;;;;;;;5107209;28;19922;-59
2022/11/09 16:00:26;;;;;;;;;;;;;;;;;;5107889;28;20289;-59
2022/11/09 16:02:52;;;;;;;;;;;;;;;;;;5106478;28;19924;-59
2022/11/09 16:05:18;;;;;;;;;;;;;;;;;;5107652;28;19916;-60
2022/11/09 16:07:51;;;;;;;;;;;;;;;;;;5106466;28;20385;-60
2022/11/09 16:10:19;;;;;;;;;;;;;;;;;;5102881;28;19915;-60
2022/11/09 16:12:44;;;;;;;;;;;;;;;;;;5109051;28;19962;-60
2022/11/09 16:15:09;;;;;;;;;;;;;;;;;;5109290;28;19954;-60
2022/11/09 16:17:35;;;;;;;;;;;;;;;;;;5107115;28;19915;-60
2022/11/09 16:20:00;;;;;;;;;;;;;;;;;;5108585;28;19923;-60
2022/11/09 16:22:32;;;;;;;;;;;;;;;;;;5107203;28;19916;-60
2022/11/09 16:24:57;;;;;;;;;;;;;;;;;;5106851;28;19916;-60
2022/11/09 16:27:23;;;;;;;;;;;;;;;;;;5106776;28;19919;-59
2022/11/09 16:29:49;;;;;;;;;;;;;;;;;;5105625;28;19924;-59
2022/11/09 16:32:14;;;;;;;;;;;;;;;;;;5107321;28;19916;-59
2022/11/09 16:34:39;;;;;;;;;;;;;;;;;;5108872;28;19968;-60
2022/11/09 16:37:05;;;;;;;;;;;;;;;;;;5106983;28;19919;-59
2022/11/09 16:39:31;;;;;;;;;;;;;;;;;;5107896;28;19924;-59
2022/11/09 16:41:59;;;;;;;;;;;;;;;;;;5111946;28;19923;-59
2022/11/09 16:44:29;;;;;;;;;;;;;;;;;;5110704;28;20281;-59
2022/11/09 16:46:55;;;;;;;;;;;;;;;;;;5111341;28;20439;-59
2022/11/09 16:49:20;;;;;;;;;;;;;;;;;;5109008;28;19916;-59
2022/11/09 16:51:45;;;;;;;;;;;;;;;;;;5108432;28;19923;-61
2022/11/09 16:54:10;;;;;;;;;;;;;;;;;;5109741;28;19916;-61
2022/11/09 16:56:36;;;;;;;;;;;;;;;;;;5109157;28;20339;-61